createdAt,value
2024-05-09T00:02:06.691Z,99817.73
2024-05-09T00:04:32.985Z,99823.39
2024-05-09T00:06:59.310Z,99827.05
2024-05-09T00:09:25.675Z,99828.45
2024-05-09T00:11:52.298Z,99830.20
2024-05-09T00:14:18.780Z,99833.17
2024-05-09T00:16:45.081Z,99830.73
2024-05-09T00:19:11.477Z,99832.59
2024-05-09T00:21:38.012Z,99832.40
2024-05-09T00:24:04.278Z,99833.93
2024-05-09T00:26:30.591Z,99829.48
2024-05-09T00:28:57.098Z,99834.73
2024-05-09T00:31:27.655Z,99835.20
2024-05-09T00:33:54.129Z,99837.45
2024-05-09T00:36:20.568Z,99836.36
2024-05-09T00:38:46.932Z,99838.55
2024-05-09T00:41:14.581Z,99833.76
2024-05-09T00:43:42.153Z,99834.88
2024-05-09T00:46:08.606Z,99832.59
2024-05-09T00:48:35.012Z,99835.33
2024-05-09T00:51:01.732Z,99835.58
2024-05-09T00:53:28.209Z,99833.41
2024-05-09T00:55:54.673Z,99834.52
2024-05-09T00:58:21.005Z,99830.89
2024-05-09T01:00:47.445Z,99829.48
2024-05-09T01:03:14.520Z,99827.86
2024-05-09T01:05:41.605Z,99827.71
2024-05-09T01:08:08.401Z,99827.35
2024-05-09T01:10:36.123Z,99832.34
2024-05-09T01:13:03.018Z,99835.23
2024-05-09T01:15:29.445Z,99833.63
2024-05-09T01:17:56.310Z,99839.14
2024-05-09T01:20:31.871Z,99840.20
2024-05-09T01:23:06.329Z,99842.73
2024-05-09T01:25:32.701Z,99846.38
2024-05-09T01:27:58.963Z,99844.30
2024-05-09T01:30:31.912Z,99841.80
2024-05-09T01:33:01.961Z,99843.66
2024-05-09T01:35:31.998Z,99840.53
2024-05-09T01:37:58.452Z,99839.29
2024-05-09T01:40:33.562Z,99839.71
2024-05-09T01:43:04.092Z,99834.65
2024-05-09T01:45:30.396Z,99837.16
2024-05-09T01:47:56.955Z,99832.61
2024-05-09T01:50:35.713Z,99832.13
2024-05-09T01:53:05.334Z,99833.41
2024-05-09T01:55:31.594Z,99830.17
2024-05-09T01:57:57.842Z,99823.52
2024-05-09T02:00:33.859Z,99827.31
2024-05-09T02:03:05.750Z,99832.93
2024-05-09T02:05:32.253Z,99831.00
2024-05-09T02:07:58.663Z,99831.29
2024-05-09T02:10:31.754Z,99824.82
2024-05-09T02:12:59.264Z,99827.05
2024-05-09T02:15:25.563Z,99826.14
2024-05-09T02:17:52.067Z,99823.35
2024-05-09T02:20:27.163Z,99828.44
2024-05-09T02:22:59.762Z,99829.42
2024-05-09T02:25:26.078Z,99831.78
2024-05-09T02:27:52.411Z,99833.20
2024-05-09T02:30:26.200Z,99838.44
2024-05-09T02:33:02.260Z,99839.86
2024-05-09T02:35:28.767Z,99833.52
2024-05-09T02:37:55.087Z,99835.07
2024-05-09T02:40:28.923Z,99836.15
2024-05-09T02:43:02.261Z,99836.50
2024-05-09T02:45:28.553Z,99839.40
2024-05-09T02:47:55.110Z,99841.46
2024-05-09T02:50:29.741Z,99844.42
2024-05-09T02:53:03.172Z,99841.12
2024-05-09T02:55:29.492Z,99839.38
2024-05-09T02:57:55.834Z,99838.58
2024-05-09T03:00:34.841Z,99840.41
2024-05-09T03:03:06.473Z,99841.35
2024-05-09T03:05:33.199Z,99842.48
2024-05-09T03:07:59.792Z,99847.27
2024-05-09T03:10:28.931Z,99842.61
2024-05-09T03:12:59.236Z,99843.52
2024-05-09T03:15:25.598Z,99843.52
2024-05-09T03:17:52.099Z,99839.04
2024-05-09T03:20:23.758Z,99841.11
2024-05-09T03:22:56.880Z,99846.52
2024-05-09T03:25:23.425Z,99841.13
2024-05-09T03:27:49.869Z,99847.13
2024-05-09T03:30:28.770Z,99850.77
2024-05-09T03:33:02.105Z,99854.62
2024-05-09T03:35:28.690Z,99858.37
2024-05-09T03:37:54.982Z,99857.18
2024-05-09T03:40:26.211Z,99854.92
2024-05-09T03:42:53.056Z,99854.60
2024-05-09T03:45:19.400Z,99853.21
2024-05-09T03:47:46.382Z,99855.02
2024-05-09T03:50:18.510Z,99858.86
2024-05-09T03:52:52.668Z,99860.49
2024-05-09T03:55:19.176Z,99859.02
2024-05-09T03:57:45.509Z,99862.96
2024-05-09T04:00:17.926Z,99863.19
2024-05-09T04:02:52.112Z,99865.73
2024-05-09T04:05:18.458Z,99869.02
2024-05-09T04:07:44.890Z,99870.27
2024-05-09T04:10:20.622Z,99867.73
2024-05-09T04:12:50.663Z,99869.44
2024-05-09T04:15:16.959Z,99871.58
2024-05-09T04:17:43.569Z,99872.00
2024-05-09T04:20:12.476Z,99871.87
2024-05-09T04:22:44.659Z,99874.95
2024-05-09T04:25:11.014Z,99872.62
2024-05-09T04:27:37.245Z,99875.70
2024-05-09T04:30:03.755Z,99875.53
2024-05-09T04:32:31.710Z,99876.02
2024-05-09T04:34:58.138Z,99881.30
2024-05-09T04:37:24.611Z,99881.00
2024-05-09T04:39:50.988Z,99885.19
2024-05-09T04:42:17.382Z,99886.21
2024-05-09T04:44:44.759Z,99889.98
2024-05-09T04:47:11.279Z,99896.16
2024-05-09T04:49:37.774Z,99893.20
2024-05-09T04:52:04.050Z,99899.85
2024-05-09T04:54:36.068Z,99899.11
2024-05-09T04:57:03.117Z,99896.33
2024-05-09T04:59:29.491Z,99902.58
2024-05-09T05:01:55.815Z,99903.76
2024-05-09T05:04:22.194Z,99906.54
2024-05-09T05:06:48.583Z,99909.39
2024-05-09T05:09:15.056Z,99909.45
2024-05-09T05:11:41.382Z,99912.39
2024-05-09T05:14:07.924Z,99914.67
2024-05-09T05:16:34.172Z,99918.91
2024-05-09T05:19:00.511Z,99917.87
2024-05-09T05:21:27.155Z,99921.45
2024-05-09T05:23:53.803Z,99921.30
2024-05-09T05:26:20.129Z,99917.61
2024-05-09T05:28:46.499Z,99916.63
2024-05-09T05:31:12.760Z,99920.84
2024-05-09T05:33:39.281Z,99917.91
2024-05-09T05:36:05.961Z,99919.08
2024-05-09T05:38:32.725Z,99919.90
2024-05-09T05:40:59.248Z,99921.13
2024-05-09T05:43:25.522Z,99922.88
2024-05-09T05:45:51.835Z,99921.20
2024-05-09T05:48:18.504Z,99925.60
2024-05-09T05:50:45.146Z,99925.36
2024-05-09T05:53:11.473Z,99925.92
2024-05-09T05:55:37.819Z,99925.11
2024-05-09T05:58:04.304Z,99926.60
2024-05-09T06:00:37.803Z,99928.55
2024-05-09T06:03:06.333Z,99928.70
2024-05-09T06:05:33.500Z,99923.23
2024-05-09T06:08:00.019Z,99925.65
2024-05-09T06:10:35.025Z,99924.61
2024-05-09T06:13:07.635Z,99926.23
2024-05-09T06:15:34.284Z,99929.57
2024-05-09T06:18:00.894Z,99930.30
2024-05-09T06:20:35.058Z,99933.42
2024-05-09T06:23:03.723Z,99936.60
2024-05-09T06:25:30.017Z,99937.91
2024-05-09T06:27:56.257Z,99938.04
2024-05-09T06:30:30.033Z,99938.75
2024-05-09T06:33:03.546Z,99933.03
2024-05-09T06:35:30.224Z,99930.46
2024-05-09T06:37:56.678Z,99932.25
2024-05-09T06:40:29.202Z,99925.50
2024-05-09T06:43:00.505Z,99922.98
2024-05-09T06:45:26.966Z,99924.69
2024-05-09T06:47:53.414Z,99922.94
2024-05-09T06:50:24.025Z,99922.29
2024-05-09T06:52:54.198Z,99920.20
2024-05-09T06:55:20.537Z,99919.80
2024-05-09T06:57:46.989Z,99921.39
2024-05-09T07:00:19.150Z,99919.43
2024-05-09T07:02:53.769Z,99919.25
2024-05-09T07:05:20.278Z,99920.41
2024-05-09T07:07:47.200Z,99922.71
2024-05-09T07:10:21.536Z,99922.13
2024-05-09T07:12:51.866Z,99919.58
2024-05-09T07:15:18.183Z,99923.19
2024-05-09T07:17:44.642Z,99920.38
2024-05-09T07:20:16.198Z,99918.87
2024-05-09T07:22:46.432Z,99920.00
2024-05-09T07:25:12.892Z,99917.41
2024-05-09T07:27:39.482Z,99918.23
2024-05-09T07:30:07.247Z,99917.27
2024-05-09T07:32:35.067Z,99916.88
2024-05-09T07:35:01.729Z,99916.20
2024-05-09T07:37:28.027Z,99915.63
2024-05-09T07:39:54.324Z,99918.65
2024-05-09T07:42:20.737Z,99913.23
2024-05-09T07:44:46.982Z,99914.69
2024-05-09T07:48:27.949Z,99913.69
2024-05-09T07:51:47.492Z,99914.91
2024-05-09T07:53:34.484Z,99912.79
2024-05-09T07:55:32.376Z,99911.59
2024-05-09T07:57:58.908Z,99911.31
2024-05-09T08:00:31.050Z,99911.69
2024-05-09T08:02:58.369Z,99911.90
2024-05-09T08:05:24.915Z,99912.78
2024-05-09T08:07:53.811Z,99914.83
2024-05-09T08:10:24.500Z,99909.98
2024-05-09T08:12:53.651Z,99911.84
2024-05-09T08:15:20.054Z,99906.91
2024-05-09T08:17:46.408Z,99909.04
2024-05-09T08:20:15.922Z,99910.88
2024-05-09T08:22:45.182Z,99908.98
2024-05-09T08:25:13.544Z,99912.95
2024-05-09T08:27:40.524Z,99911.45
2024-05-09T08:30:10.105Z,99909.52
2024-05-09T08:32:36.747Z,99909.73
2024-05-09T08:35:03.614Z,99913.62
2024-05-09T08:37:34.993Z,99912.67
2024-05-09T08:40:05.271Z,99907.58
2024-05-09T08:42:35.854Z,99902.84
2024-05-09T08:45:02.257Z,99907.44
2024-05-09T08:47:28.592Z,99910.52
2024-05-09T08:49:55.006Z,99911.64
2024-05-09T08:52:25.578Z,99912.10
2024-05-09T08:54:51.863Z,99909.34
2024-05-09T08:57:18.141Z,99909.35
2024-05-09T08:59:44.422Z,99905.33
2024-05-09T09:02:11.123Z,99903.64
2024-05-09T09:04:37.817Z,99906.60
2024-05-09T09:07:04.361Z,99906.63
2024-05-09T09:09:30.786Z,99898.35
2024-05-09T09:11:57.331Z,99896.45
2024-05-09T09:14:23.749Z,99896.64
2024-05-09T09:16:50.055Z,99899.00
2024-05-09T09:19:16.476Z,99895.31
2024-05-09T09:21:42.883Z,99904.20
2024-05-09T09:24:10.032Z,99903.48
2024-05-09T09:26:36.457Z,99904.60
2024-05-09T09:29:02.802Z,99902.81
2024-05-09T09:31:29.139Z,99903.08
2024-05-09T09:33:55.910Z,99899.98
2024-05-09T09:36:22.411Z,99900.38
2024-05-09T09:38:50.675Z,99901.61
2024-05-09T09:41:16.989Z,99898.05
2024-05-09T09:43:43.303Z,99896.86
2024-05-09T09:46:12.454Z,99897.27
2024-05-09T09:48:39.257Z,99899.49
2024-05-09T09:51:05.890Z,99900.90
2024-05-09T09:53:32.162Z,99898.11
2024-05-09T09:55:58.466Z,99900.31
2024-05-09T09:58:25.051Z,99894.00
2024-05-09T10:00:54.061Z,99894.47
2024-05-09T10:03:20.585Z,99897.63
2024-05-09T10:05:47.501Z,99896.21
2024-05-09T10:08:14.102Z,99891.80
2024-05-09T10:10:40.632Z,99889.58
2024-05-09T10:13:07.313Z,99885.55
2024-05-09T10:15:36.727Z,99889.69
2024-05-09T10:18:03.190Z,99890.62
2024-05-09T10:20:32.593Z,99890.29
2024-05-09T10:22:59.327Z,99893.98
2024-05-09T10:25:25.689Z,99888.43
2024-05-09T10:27:52.054Z,99885.64
2024-05-09T10:30:25.849Z,99887.18
2024-05-09T10:32:56.347Z,99881.05
2024-05-09T10:35:22.734Z,99886.79
2024-05-09T10:37:49.167Z,99881.27
2024-05-09T10:40:23.077Z,99881.55
2024-05-09T10:42:55.106Z,99884.83
2024-05-09T10:45:21.384Z,99878.92
2024-05-09T10:47:47.804Z,99884.65
2024-05-09T10:50:22.277Z,99877.02
2024-05-09T10:52:54.583Z,99872.11
2024-05-09T10:55:20.985Z,99867.23
2024-05-09T10:57:47.493Z,99864.92
2024-05-09T11:00:23.202Z,99865.73
2024-05-09T11:02:56.474Z,99869.05
2024-05-09T11:05:23.265Z,99870.23
2024-05-09T11:07:49.805Z,99864.79
2024-05-09T11:10:24.354Z,99868.34
2024-05-09T11:12:53.843Z,99863.11
2024-05-09T11:15:20.168Z,99860.31
2024-05-09T11:17:46.519Z,99863.14
2024-05-09T11:20:19.586Z,99860.00
2024-05-09T11:22:52.679Z,99860.36
2024-05-09T11:25:19.202Z,99856.35
2024-05-09T11:27:45.640Z,99847.91
2024-05-09T11:30:17.420Z,99843.34
2024-05-09T11:32:50.123Z,99849.01
2024-05-09T11:35:16.662Z,99848.63
2024-05-09T11:37:42.914Z,99846.31
2024-05-09T11:40:13.939Z,99842.38
2024-05-09T11:42:49.921Z,99839.38
2024-05-09T11:45:17.820Z,99831.59
2024-05-09T11:47:44.320Z,99832.70
2024-05-09T11:50:16.320Z,99834.58
2024-05-09T11:52:48.971Z,99832.17
2024-05-09T11:55:15.439Z,99833.16
2024-05-09T11:57:41.886Z,99833.96
2024-05-09T12:00:14.815Z,99830.02
2024-05-09T12:02:44.104Z,99828.45
2024-05-09T12:05:10.435Z,99823.27
2024-05-09T12:07:36.825Z,99821.02
2024-05-09T12:10:04.688Z,99819.15
2024-05-09T12:12:35.512Z,99818.89
2024-05-09T12:15:03.367Z,99816.62
2024-05-09T12:17:29.860Z,99819.00
2024-05-09T12:19:56.241Z,99813.52
2024-05-09T12:22:25.630Z,99813.32
2024-05-09T12:24:51.987Z,99810.16
2024-05-09T12:27:18.373Z,99808.25
2024-05-09T12:29:44.604Z,99810.48
2024-05-09T12:32:11.144Z,99806.77
2024-05-09T12:34:37.515Z,99806.73
2024-05-09T12:37:03.857Z,99806.94
2024-05-09T12:39:30.393Z,99807.17
2024-05-09T12:41:57.969Z,99798.28
2024-05-09T12:44:24.206Z,99797.23
2024-05-09T12:46:51.747Z,99794.82
2024-05-09T12:49:20.855Z,99795.96
2024-05-09T12:51:47.245Z,99790.48
2024-05-09T12:54:13.570Z,99789.32
2024-05-09T12:56:39.823Z,99790.01
2024-05-09T12:59:06.061Z,99790.77
2024-05-09T13:01:33.521Z,99788.36
2024-05-09T13:04:00.184Z,99784.70
2024-05-09T13:06:26.822Z,99778.63
2024-05-09T13:08:55.107Z,99779.09
2024-05-09T13:11:21.490Z,99776.80
2024-05-09T13:13:47.833Z,99778.77
2024-05-09T13:16:14.317Z,99772.35
2024-05-09T13:18:40.650Z,99771.52
2024-05-09T13:21:07.070Z,99764.42
2024-05-09T13:23:33.320Z,99763.45
2024-05-09T13:25:59.586Z,99764.54
2024-05-09T13:28:26.034Z,99761.45
2024-05-09T13:30:52.423Z,99762.49
2024-05-09T13:33:18.853Z,99759.67
2024-05-09T13:35:49.178Z,99760.46
2024-05-09T13:38:17.331Z,99754.66
2024-05-09T13:40:43.632Z,99757.09
2024-05-09T13:43:10.027Z,99752.59
2024-05-09T13:45:36.348Z,99747.02
2024-05-09T13:48:02.956Z,99750.61
2024-05-09T13:50:34.215Z,99741.42
2024-05-09T13:53:02.600Z,99741.17
2024-05-09T13:55:29.034Z,99733.63
2024-05-09T13:57:55.694Z,99733.91
2024-05-09T14:02:54.709Z,99732.76
2024-05-09T14:05:21.329Z,99730.88
2024-05-09T14:07:47.737Z,99729.35
2024-05-09T14:10:22.633Z,99725.44
2024-05-09T14:12:53.026Z,99727.11
2024-05-09T14:15:19.393Z,99723.34
2024-05-09T14:17:45.705Z,99723.89
2024-05-09T14:20:14.211Z,99723.73
2024-05-09T14:22:45.618Z,99723.01
2024-05-09T14:25:12.130Z,99715.16
2024-05-09T14:27:38.783Z,99716.02
2024-05-09T14:30:09.508Z,99716.85
2024-05-09T14:32:41.480Z,99715.06
2024-05-09T14:35:07.963Z,99712.95
2024-05-09T14:37:36.339Z,99710.02
2024-05-09T14:40:05.062Z,99708.17
2024-05-09T14:42:33.283Z,99705.41
2024-05-09T14:44:59.560Z,99704.75
2024-05-09T14:47:28.725Z,99702.92
2024-05-09T14:49:55.308Z,99696.61
2024-05-09T14:52:21.724Z,99699.73
2024-05-09T14:54:51.331Z,99688.41
2024-05-09T14:57:20.219Z,99690.10
2024-05-09T14:59:46.436Z,99687.61
2024-05-09T15:02:13.050Z,99684.16
2024-05-09T15:04:39.562Z,99685.33
2024-05-09T15:07:06.691Z,99683.88
2024-05-09T15:09:34.916Z,99685.49
2024-05-09T15:12:01.488Z,99688.46
2024-05-09T15:14:33.594Z,99690.23
2024-05-09T15:16:59.873Z,99685.30
2024-05-09T15:19:26.443Z,99683.63
2024-05-09T15:21:52.938Z,99678.89
2024-05-09T15:24:19.215Z,99678.14
2024-05-09T15:26:45.491Z,99672.83
2024-05-09T15:29:11.864Z,99671.38
2024-05-09T15:31:38.092Z,99672.14
2024-05-09T15:34:04.515Z,99670.06
2024-05-09T15:36:31.270Z,99666.59
2024-05-09T15:38:57.531Z,99665.48
2024-05-09T15:41:23.826Z,99667.95
2024-05-09T15:43:50.059Z,99665.35
2024-05-09T15:46:16.304Z,99668.21
2024-05-09T15:48:44.757Z,99660.59
2024-05-09T15:51:11.376Z,99659.23
2024-05-09T15:53:37.700Z,99657.23
2024-05-09T15:56:03.955Z,99654.93
2024-05-09T15:58:30.242Z,99653.18
2024-05-09T16:00:56.625Z,99651.34
2024-05-09T16:03:22.928Z,99654.27
2024-05-09T16:05:49.267Z,99649.08
2024-05-09T16:08:15.885Z,99652.89
2024-05-09T16:10:44.199Z,99650.80
2024-05-09T16:13:11.631Z,99647.70
2024-05-09T16:15:38.058Z,99650.31
2024-05-09T16:18:04.393Z,99645.30
2024-05-09T16:20:38.799Z,99645.52
2024-05-09T16:23:08.183Z,99643.42
2024-05-09T16:25:35.044Z,99642.07
2024-05-09T16:28:01.898Z,99645.42
2024-05-09T16:30:34.372Z,99640.32
2024-05-09T16:33:02.472Z,99641.91
2024-05-09T16:35:31.361Z,99641.33
2024-05-09T16:37:57.644Z,99640.46
2024-05-09T16:40:30.488Z,99645.36
2024-05-09T16:43:03.813Z,99646.67
2024-05-09T16:45:30.470Z,99648.63
2024-05-09T16:47:56.870Z,99646.75
2024-05-09T16:50:29.279Z,99642.23
2024-05-09T16:52:59.550Z,99642.84
2024-05-09T16:55:25.899Z,99638.73
2024-05-09T16:57:52.240Z,99636.30
2024-05-09T17:00:26.724Z,99636.40
2024-05-09T17:03:03.116Z,99639.16
2024-05-09T17:05:29.800Z,99639.20
2024-05-09T17:08:04.208Z,99638.84
2024-05-09T17:10:33.704Z,99633.87
2024-05-09T17:13:01.786Z,99633.45
2024-05-09T17:15:28.303Z,99635.27
2024-05-09T17:17:54.584Z,99636.63
2024-05-09T17:20:29.398Z,99637.34
2024-05-09T17:23:00.063Z,99635.67
2024-05-09T17:25:26.340Z,99636.71
2024-05-09T17:27:55.580Z,99636.62
2024-05-09T17:30:29.039Z,99631.71
2024-05-09T17:33:01.226Z,99630.77
2024-05-09T17:35:27.658Z,99623.98
2024-05-09T17:37:53.872Z,99630.13
2024-05-09T17:40:30.041Z,99629.20
2024-05-09T17:42:59.838Z,99627.78
2024-05-09T17:45:26.363Z,99630.02
2024-05-09T17:47:52.860Z,99625.36
2024-05-09T17:50:27.270Z,99622.02
2024-05-09T17:53:00.226Z,99626.44
2024-05-09T17:55:26.798Z,99627.42
2024-05-09T17:57:53.348Z,99631.42
2024-05-09T18:00:28.828Z,99634.16
2024-05-09T18:03:03.101Z,99637.90
2024-05-09T18:05:29.637Z,99637.80
2024-05-09T18:07:56.141Z,99637.13
2024-05-09T18:10:29.511Z,99636.73
2024-05-09T18:13:02.329Z,99635.48
2024-05-09T18:15:28.640Z,99642.70
2024-05-09T18:17:55.050Z,99644.73
2024-05-09T18:20:32.141Z,99645.27
2024-05-09T18:23:06.396Z,99647.43
2024-05-09T18:25:32.888Z,99649.69
2024-05-09T18:27:59.274Z,99653.39
2024-05-09T18:30:32.229Z,99655.59
2024-05-09T18:33:02.123Z,99659.90
2024-05-09T18:35:30.595Z,99660.94
2024-05-09T18:37:56.987Z,99662.48
2024-05-09T18:42:52.568Z,99671.89
2024-05-09T18:45:18.929Z,99675.13
2024-05-09T18:47:45.296Z,99674.47
2024-05-09T18:50:17.295Z,99676.67
2024-05-09T18:52:50.754Z,99681.30
2024-05-09T18:55:17.202Z,99686.58
2024-05-09T18:57:43.523Z,99683.45
2024-05-09T19:00:22.700Z,99689.13
2024-05-09T19:02:57.384Z,99693.13
2024-05-09T19:05:23.992Z,99693.52
2024-05-09T19:07:50.511Z,99691.92
2024-05-09T19:12:59.899Z,99695.84
2024-05-09T19:15:30.827Z,99698.50
2024-05-09T19:18:00.077Z,99699.12
2024-05-09T19:20:34.128Z,99697.30
2024-05-09T19:23:02.202Z,99697.70
2024-05-09T19:25:28.650Z,99698.79
2024-05-09T19:27:55.964Z,99698.43
2024-05-09T19:30:30.117Z,99698.15
2024-05-09T19:33:04.679Z,99699.17
2024-05-09T19:35:31.325Z,99704.34
2024-05-09T19:37:57.553Z,99702.17
2024-05-09T19:40:30.415Z,99703.14
2024-05-09T19:43:00.420Z,99700.25
2024-05-09T19:45:27.955Z,99703.25
2024-05-09T19:47:54.686Z,99709.59
2024-05-09T19:50:27.131Z,99708.29
2024-05-09T19:53:02.578Z,99713.41
2024-05-09T19:55:29.043Z,99708.89
2024-05-09T19:57:58.924Z,99711.44
2024-05-09T20:00:32.860Z,99712.77
2024-05-09T20:03:03.234Z,99714.89
2024-05-09T20:05:32.095Z,99716.45
2024-05-09T20:07:58.713Z,99718.73
2024-05-09T20:10:31.075Z,99721.50
2024-05-09T20:13:00.879Z,99724.02
2024-05-09T20:15:30.287Z,99724.06
2024-05-09T20:17:56.951Z,99725.34
2024-05-09T20:20:34.984Z,99725.36
2024-05-09T20:23:04.823Z,99728.41
2024-05-09T20:25:33.240Z,99723.64
2024-05-09T20:28:00.060Z,99721.93
2024-05-09T20:30:31.946Z,99719.48
2024-05-09T20:33:00.288Z,99720.71
2024-05-09T20:35:27.118Z,99720.36
2024-05-09T20:37:53.614Z,99718.91
2024-05-09T20:40:28.265Z,99717.52
2024-05-09T20:42:59.640Z,99721.13
2024-05-09T20:45:26.054Z,99719.39
2024-05-09T20:47:52.533Z,99718.73
2024-05-09T20:50:28.022Z,99715.38
2024-05-09T20:53:02.634Z,99714.53
2024-05-09T20:55:29.174Z,99713.86
2024-05-09T20:57:55.834Z,99713.32
2024-05-09T21:00:29.757Z,99717.18
2024-05-09T21:03:02.123Z,99719.55
2024-05-09T21:05:30.267Z,99715.11
2024-05-09T21:07:56.991Z,99711.91
2024-05-09T21:10:27.185Z,99713.09
2024-05-09T21:12:56.399Z,99713.26
2024-05-09T21:15:22.798Z,99716.78
2024-05-09T21:17:49.183Z,99717.79
2024-05-09T21:20:20.321Z,99720.59
2024-05-09T21:22:51.915Z,99720.40
2024-05-09T21:25:18.246Z,99716.77
2024-05-09T21:27:48.749Z,99717.80
2024-05-09T21:30:31.624Z,99718.95
2024-05-09T21:33:06.592Z,99720.07
2024-05-09T21:35:32.981Z,99724.88
2024-05-09T21:37:59.360Z,99723.98
2024-05-09T21:40:35.002Z,99725.05
2024-05-09T21:43:02.892Z,99727.65
2024-05-09T21:45:29.519Z,99726.46
2024-05-09T21:47:56.216Z,99727.23
2024-05-09T21:50:28.418Z,99726.73
2024-05-09T21:53:02.309Z,99724.91
2024-05-09T21:55:28.551Z,99722.45
2024-05-09T21:57:55.098Z,99722.59
2024-05-09T22:00:29.018Z,99724.15
2024-05-09T22:03:01.648Z,99722.46
2024-05-09T22:05:28.083Z,99725.48
2024-05-09T22:07:54.386Z,99729.84
2024-05-09T22:10:26.252Z,99729.73
2024-05-09T22:13:00.605Z,99727.38
2024-05-09T22:15:26.997Z,99730.05
2024-05-09T22:17:55.057Z,99726.95
2024-05-09T22:20:28.858Z,99725.98
2024-05-09T22:23:02.342Z,99729.61
2024-05-09T22:25:30.441Z,99729.27
2024-05-09T22:27:58.776Z,99728.75
2024-05-09T22:30:33.832Z,99724.33
2024-05-09T22:33:04.068Z,99727.94
2024-05-09T22:35:30.506Z,99731.59
2024-05-09T22:37:56.818Z,99726.60
2024-05-09T22:40:32.195Z,99727.42
2024-05-09T22:43:05.206Z,99723.66
2024-05-09T22:45:31.713Z,99722.98
2024-05-09T22:48:01.207Z,99722.84
2024-05-09T22:50:32.823Z,99723.08
2024-05-09T22:52:59.962Z,99725.38
2024-05-09T22:55:26.229Z,99725.71
2024-05-09T22:57:52.841Z,99722.55
2024-05-09T23:00:26.190Z,99722.54
2024-05-09T23:02:58.122Z,99718.95
2024-05-09T23:05:24.513Z,99719.77
2024-05-09T23:07:55.101Z,99718.85
2024-05-09T23:10:28.313Z,99719.70
2024-05-09T23:13:04.247Z,99717.45
2024-05-09T23:15:30.859Z,99719.55
2024-05-09T23:17:57.635Z,99715.23
2024-05-09T23:20:33.430Z,99713.80
2024-05-09T23:23:04.252Z,99712.86
2024-05-09T23:25:30.590Z,99713.27
2024-05-09T23:27:57.068Z,99716.59
2024-05-09T23:30:33.169Z,99720.94
2024-05-09T23:33:04.214Z,99723.50
2024-05-09T23:35:30.624Z,99721.13
2024-05-09T23:37:56.918Z,99719.97
2024-05-09T23:40:36.757Z,99727.50
2024-05-09T23:43:06.327Z,99726.70
2024-05-09T23:45:32.840Z,99729.92
2024-05-09T23:47:59.398Z,99725.23
2024-05-09T23:50:33.614Z,99726.71
2024-05-09T23:53:02.983Z,99725.63
2024-05-09T23:55:29.252Z,99720.70
2024-05-09T23:57:55.646Z,99721.59
